sensor_id;sensor_type;location;lat;lon;timestamp;temperature;humidity
11908;DHT22;6014;47.690;9.130;2023-10-13T00:00:27;14.00;99.90
11908;DHT22;6014;47.690;9.130;2023-10-13T00:02:57;14.00;99.90
11908;DHT22;6014;47.690;9.130;2023-10-13T00:05:29;14.00;99.90
11908;DHT22;6014;47.690;9.130;2023-10-13T00:07:59;14.00;99.90
11908;DHT22;6014;47.690;9.130;2023-10-13T00:10:30;13.90;99.90
11908;DHT22;6014;47.690;9.130;2023-10-13T00:12:58;13.90;99.90
11908;DHT22;6014;47.690;9.130;2023-10-13T00:15:43;13.80;99.90
11908;DHT22;6014;47.690;9.130;2023-10-13T00:18:24;13.80;99.90
11908;DHT22;6014;47.690;9.130;2023-10-13T00:20:58;13.70;99.90
11908;DHT22;6014;47.690;9.130;2023-10-13T00:23:26;13.70;99.90
11908;DHT22;6014;47.690;9.130;2023-10-13T00:25:55;13.60;99.90
11908;DHT22;6014;47.690;9.130;2023-10-13T00:28:26;13.50;99.90
11908;DHT22;6014;47.690;9.130;2023-10-13T00:34:00;13.50;99.90
11908;DHT22;6014;47.690;9.130;2023-10-13T00:36:40;13.40;99.90
11908;DHT22;6014;47.690;9.130;2023-10-13T00:39:16;13.30;99.90
11908;DHT22;6014;47.690;9.130;2023-10-13T00:41:44;13.20;99.90
11908;DHT22;6014;47.690;9.130;2023-10-13T00:44:19;13.20;99.90
11908;DHT22;6014;47.690;9.130;2023-10-13T00:46:55;13.20;99.90
11908;DHT22;6014;47.690;9.130;2023-10-13T00:49:24;13.10;99.90
11908;DHT22;6014;47.690;9.130;2023-10-13T00:51:53;13.10;99.90
11908;DHT22;6014;47.690;9.130;2023-10-13T00:54:34;13.10;99.90
11908;DHT22;6014;47.690;9.130;2023-10-13T00:57:05;12.90;99.90
11908;DHT22;6014;47.690;9.130;2023-10-13T00:59:39;12.70;99.90
11908;DHT22;6014;47.690;9.130;2023-10-13T01:02:09;12.70;99.90
11908;DHT22;6014;47.690;9.130;2023-10-13T01:04:51;12.60;99.90
11908;DHT22;6014;47.690;9.130;2023-10-13T01:07:22;12.70;99.90
11908;DHT22;6014;47.690;9.130;2023-10-13T01:09:56;12.80;99.90
11908;DHT22;6014;47.690;9.130;2023-10-13T01:12:24;12.90;99.90
11908;DHT22;6014;47.690;9.130;2023-10-13T01:14:51;13.00;99.90
11908;DHT22;6014;47.690;9.130;2023-10-13T01:17:20;13.10;99.90
11908;DHT22;6014;47.690;9.130;2023-10-13T01:19:57;13.00;99.90
11908;DHT22;6014;47.690;9.130;2023-10-13T01:22:27;13.00;99.90
11908;DHT22;6014;47.690;9.130;2023-10-13T01:25:04;13.00;99.90
11908;DHT22;6014;47.690;9.130;2023-10-13T01:27:40;12.90;99.90
11908;DHT22;6014;47.690;9.130;2023-10-13T01:30:08;12.80;99.90
11908;DHT22;6014;47.690;9.130;2023-10-13T01:32:40;12.70;99.90
11908;DHT22;6014;47.690;9.130;2023-10-13T01:35:12;12.60;99.90
11908;DHT22;6014;47.690;9.130;2023-10-13T01:37:39;12.40;99.90
11908;DHT22;6014;47.690;9.130;2023-10-13T01:40:10;12.50;99.90
11908;DHT22;6014;47.690;9.130;2023-10-13T01:42:38;12.50;99.90
11908;DHT22;6014;47.690;9.130;2023-10-13T01:45:07;12.50;99.90
11908;DHT22;6014;47.690;9.130;2023-10-13T01:47:41;12.40;99.90
11908;DHT22;6014;47.690;9.130;2023-10-13T01:50:13;12.40;99.90
11908;DHT22;6014;47.690;9.130;2023-10-13T01:52:45;12.40;99.90
11908;DHT22;6014;47.690;9.130;2023-10-13T01:55:15;12.50;99.90
11908;DHT22;6014;47.690;9.130;2023-10-13T01:57:42;12.50;99.90
11908;DHT22;6014;47.690;9.130;2023-10-13T02:00:15;12.50;99.90
11908;DHT22;6014;47.690;9.130;2023-10-13T02:02:46;12.40;99.90
11908;DHT22;6014;47.690;9.130;2023-10-13T02:05:17;12.30;99.90
11908;DHT22;6014;47.690;9.130;2023-10-13T02:07:44;12.20;99.90
11908;DHT22;6014;47.690;9.130;2023-10-13T02:10:12;12.20;99.90
11908;DHT22;6014;47.690;9.130;2023-10-13T02:12:41;12.20;99.90
11908;DHT22;6014;47.690;9.130;2023-10-13T02:15:13;12.20;99.90
11908;DHT22;6014;47.690;9.130;2023-10-13T02:17:48;12.10;99.90
11908;DHT22;6014;47.690;9.130;2023-10-13T02:20:18;12.20;99.90
11908;DHT22;6014;47.690;9.130;2023-10-13T02:22:49;12.10;99.90
11908;DHT22;6014;47.690;9.130;2023-10-13T02:25:18;12.10;99.90
11908;DHT22;6014;47.690;9.130;2023-10-13T02:28:04;12.10;99.90
11908;DHT22;6014;47.690;9.130;2023-10-13T02:30:37;12.00;99.90
11908;DHT22;6014;47.690;9.130;2023-10-13T02:33:12;11.90;99.90
11908;DHT22;6014;47.690;9.130;2023-10-13T02:35:47;11.90;99.90
11908;DHT22;6014;47.690;9.130;2023-10-13T02:38:20;11.80;99.90
11908;DHT22;6014;47.690;9.130;2023-10-13T02:40:54;11.80;99.90
11908;DHT22;6014;47.690;9.130;2023-10-13T02:43:24;11.70;99.90
11908;DHT22;6014;47.690;9.130;2023-10-13T02:45:53;11.70;99.90
11908;DHT22;6014;47.690;9.130;2023-10-13T02:48:25;11.80;99.90
11908;DHT22;6014;47.690;9.130;2023-10-13T02:50:58;11.80;99.90
11908;DHT22;6014;47.690;9.130;2023-10-13T02:53:29;11.80;99.90
11908;DHT22;6014;47.690;9.130;2023-10-13T02:55:57;11.80;99.90
11908;DHT22;6014;47.690;9.130;2023-10-13T02:58:26;11.80;99.90
11908;DHT22;6014;47.690;9.130;2023-10-13T03:01:06;11.90;99.90
11908;DHT22;6014;47.690;9.130;2023-10-13T03:03:58;11.80;99.90
11908;DHT22;6014;47.690;9.130;2023-10-13T03:06:33;11.80;99.90
11908;DHT22;6014;47.690;9.130;2023-10-13T03:09:02;11.80;99.90
11908;DHT22;6014;47.690;9.130;2023-10-13T03:11:42;11.80;99.90
11908;DHT22;6014;47.690;9.130;2023-10-13T03:14:10;11.80;99.90
11908;DHT22;6014;47.690;9.130;2023-10-13T03:16:52;11.70;99.90
11908;DHT22;6014;47.690;9.130;2023-10-13T03:19:20;11.60;99.90
11908;DHT22;6014;47.690;9.130;2023-10-13T03:21:51;11.50;99.90
11908;DHT22;6014;47.690;9.130;2023-10-13T03:24:26;11.50;99.90
11908;DHT22;6014;47.690;9.130;2023-10-13T03:27:01;11.50;99.90
11908;DHT22;6014;47.690;9.130;2023-10-13T03:29:39;11.40;99.90
11908;DHT22;6014;47.690;9.130;2023-10-13T03:32:10;11.40;99.90
11908;DHT22;6014;47.690;9.130;2023-10-13T03:34:42;11.30;99.90
11908;DHT22;6014;47.690;9.130;2023-10-13T03:37:21;11.30;99.90
11908;DHT22;6014;47.690;9.130;2023-10-13T03:40:09;11.30;99.90
11908;DHT22;6014;47.690;9.130;2023-10-13T03:43:01;11.20;99.90
11908;DHT22;6014;47.690;9.130;2023-10-13T03:45:35;11.20;99.90
11908;DHT22;6014;47.690;9.130;2023-10-13T03:48:07;11.10;99.90
11908;DHT22;6014;47.690;9.130;2023-10-13T03:50:43;11.00;99.90
11908;DHT22;6014;47.690;9.130;2023-10-13T03:53:15;11.00;99.90
11908;DHT22;6014;47.690;9.130;2023-10-13T03:55:43;10.90;99.90
11908;DHT22;6014;47.690;9.130;2023-10-13T03:58:15;10.70;99.90
11908;DHT22;6014;47.690;9.130;2023-10-13T04:00:46;10.60;99.90
11908;DHT22;6014;47.690;9.130;2023-10-13T04:03:14;10.50;99.90
11908;DHT22;6014;47.690;9.130;2023-10-13T04:05:45;10.50;99.90
11908;DHT22;6014;47.690;9.130;2023-10-13T04:08:34;10.50;99.90
11908;DHT22;6014;47.690;9.130;2023-10-13T04:11:37;10.60;99.90
11908;DHT22;6014;47.690;9.130;2023-10-13T04:14:42;10.80;99.90
11908;DHT22;6014;47.690;9.130;2023-10-13T04:17:38;10.90;99.90
11908;DHT22;6014;47.690;9.130;2023-10-13T04:20:12;10.90;99.90
11908;DHT22;6014;47.690;9.130;2023-10-13T04:22:42;10.80;99.90
11908;DHT22;6014;47.690;9.130;2023-10-13T04:25:36;10.90;99.90
11908;DHT22;6014;47.690;9.130;2023-10-13T04:28:19;10.90;99.90
11908;DHT22;6014;47.690;9.130;2023-10-13T04:31:01;10.80;99.90
11908;DHT22;6014;47.690;9.130;2023-10-13T04:33:40;10.90;99.90
11908;DHT22;6014;47.690;9.130;2023-10-13T04:36:25;10.90;99.90
11908;DHT22;6014;47.690;9.130;2023-10-13T04:39:12;10.90;99.90
11908;DHT22;6014;47.690;9.130;2023-10-13T04:41:56;10.90;99.90
11908;DHT22;6014;47.690;9.130;2023-10-13T04:44:37;10.90;99.90
11908;DHT22;6014;47.690;9.130;2023-10-13T04:47:20;10.80;99.90
11908;DHT22;6014;47.690;9.130;2023-10-13T04:49:50;10.80;99.90
11908;DHT22;6014;47.690;9.130;2023-10-13T04:52:19;10.80;99.90
11908;DHT22;6014;47.690;9.130;2023-10-13T04:55:06;10.70;99.90
11908;DHT22;6014;47.690;9.130;2023-10-13T04:57:44;10.70;99.90
11908;DHT22;6014;47.690;9.130;2023-10-13T05:00:16;10.70;99.90
11908;DHT22;6014;47.690;9.130;2023-10-13T05:03:02;10.70;99.90
11908;DHT22;6014;47.690;9.130;2023-10-13T05:05:45;10.60;99.90
11908;DHT22;6014;47.690;9.130;2023-10-13T05:08:34;10.60;99.90
11908;DHT22;6014;47.690;9.130;2023-10-13T05:11:20;10.60;99.90
11908;DHT22;6014;47.690;9.130;2023-10-13T05:14:05;10.60;99.90
11908;DHT22;6014;47.690;9.130;2023-10-13T05:16:51;10.50;99.90
11908;DHT22;6014;47.690;9.130;2023-10-13T05:19:36;10.60;99.90
11908;DHT22;6014;47.690;9.130;2023-10-13T05:22:23;10.50;99.90
11908;DHT22;6014;47.690;9.130;2023-10-13T05:25:09;10.40;99.90
11908;DHT22;6014;47.690;9.130;2023-10-13T05:28:02;10.40;99.90
11908;DHT22;6014;47.690;9.130;2023-10-13T05:31:01;10.40;99.90
11908;DHT22;6014;47.690;9.130;2023-10-13T05:33:47;10.40;99.90
11908;DHT22;6014;47.690;9.130;2023-10-13T05:36:33;10.40;99.90
11908;DHT22;6014;47.690;9.130;2023-10-13T05:39:20;10.30;99.90
11908;DHT22;6014;47.690;9.130;2023-10-13T05:42:05;10.30;99.90
11908;DHT22;6014;47.690;9.130;2023-10-13T05:44:51;10.30;99.90
11908;DHT22;6014;47.690;9.130;2023-10-13T05:47:44;10.30;99.90
11908;DHT22;6014;47.690;9.130;2023-10-13T05:50:14;10.30;99.90
11908;DHT22;6014;47.690;9.130;2023-10-13T05:53:16;10.30;99.90
11908;DHT22;6014;47.690;9.130;2023-10-13T05:56:04;10.30;99.90
11908;DHT22;6014;47.690;9.130;2023-10-13T05:58:49;10.30;99.90
11908;DHT22;6014;47.690;9.130;2023-10-13T06:01:35;10.40;99.90
11908;DHT22;6014;47.690;9.130;2023-10-13T06:04:20;10.40;99.90
11908;DHT22;6014;47.690;9.130;2023-10-13T06:07:07;10.40;99.90
11908;DHT22;6014;47.690;9.130;2023-10-13T06:09:53;10.50;99.90
11908;DHT22;6014;47.690;9.130;2023-10-13T06:12:50;10.60;99.90
11908;DHT22;6014;47.690;9.130;2023-10-13T06:15:36;10.70;99.90
11908;DHT22;6014;47.690;9.130;2023-10-13T06:18:22;10.80;99.90
11908;DHT22;6014;47.690;9.130;2023-10-13T06:21:07;10.80;99.90
11908;DHT22;6014;47.690;9.130;2023-10-13T06:23:53;11.00;99.90
11908;DHT22;6014;47.690;9.130;2023-10-13T06:26:50;11.10;99.90
11908;DHT22;6014;47.690;9.130;2023-10-13T06:29:37;11.30;99.90
11908;DHT22;6014;47.690;9.130;2023-10-13T06:32:05;11.60;99.90
11908;DHT22;6014;47.690;9.130;2023-10-13T06:34:40;11.80;99.90
11908;DHT22;6014;47.690;9.130;2023-10-13T06:37:11;11.90;99.90
11908;DHT22;6014;47.690;9.130;2023-10-13T06:39:52;11.90;99.90
11908;DHT22;6014;47.690;9.130;2023-10-13T06:42:25;12.00;99.90
11908;DHT22;6014;47.690;9.130;2023-10-13T06:44:56;12.20;99.90
11908;DHT22;6014;47.690;9.130;2023-10-13T06:47:27;12.40;99.90
11908;DHT22;6014;47.690;9.130;2023-10-13T06:49:56;12.60;99.90
11908;DHT22;6014;47.690;9.130;2023-10-13T06:52:24;12.70;99.90
11908;DHT22;6014;47.690;9.130;2023-10-13T06:54:56;12.90;99.90
11908;DHT22;6014;47.690;9.130;2023-10-13T06:57:30;13.10;99.90
11908;DHT22;6014;47.690;9.130;2023-10-13T07:00:01;13.40;99.90
11908;DHT22;6014;47.690;9.130;2023-10-13T07:02:34;13.70;99.90
11908;DHT22;6014;47.690;9.130;2023-10-13T07:05:03;13.80;99.90
11908;DHT22;6014;47.690;9.130;2023-10-13T07:07:35;14.20;99.90
11908;DHT22;6014;47.690;9.130;2023-10-13T07:10:08;14.50;99.90
11908;DHT22;6014;47.690;9.130;2023-10-13T07:12:36;14.70;99.90
11908;DHT22;6014;47.690;9.130;2023-10-13T07:15:11;15.00;99.90
11908;DHT22;6014;47.690;9.130;2023-10-13T07:17:46;15.20;99.90
11908;DHT22;6014;47.690;9.130;2023-10-13T07:20:22;15.20;99.90
11908;DHT22;6014;47.690;9.130;2023-10-13T07:23:00;15.40;99.90
11908;DHT22;6014;47.690;9.130;2023-10-13T07:25:31;15.40;99.90
11908;DHT22;6014;47.690;9.130;2023-10-13T07:28:04;15.60;99.90
11908;DHT22;6014;47.690;9.130;2023-10-13T07:30:36;15.50;99.90
11908;DHT22;6014;47.690;9.130;2023-10-13T07:33:09;15.60;99.90
11908;DHT22;6014;47.690;9.130;2023-10-13T07:35:40;15.70;99.90
11908;DHT22;6014;47.690;9.130;2023-10-13T07:38:08;15.80;99.90
11908;DHT22;6014;47.690;9.130;2023-10-13T07:40:38;15.90;99.90
11908;DHT22;6014;47.690;9.130;2023-10-13T07:43:09;15.90;99.90
11908;DHT22;6014;47.690;9.130;2023-10-13T07:45:39;16.00;99.90
11908;DHT22;6014;47.690;9.130;2023-10-13T07:48:09;16.20;99.90
11908;DHT22;6014;47.690;9.130;2023-10-13T07:50:46;16.20;99.90
11908;DHT22;6014;47.690;9.130;2023-10-13T07:53:15;16.50;99.90
11908;DHT22;6014;47.690;9.130;2023-10-13T07:55:51;16.60;99.90
11908;DHT22;6014;47.690;9.130;2023-10-13T07:58:23;16.70;99.90
11908;DHT22;6014;47.690;9.130;2023-10-13T08:00:54;16.80;99.90
11908;DHT22;6014;47.690;9.130;2023-10-13T08:03:34;17.00;99.90
11908;DHT22;6014;47.690;9.130;2023-10-13T08:06:12;17.10;99.90
11908;DHT22;6014;47.690;9.130;2023-10-13T08:08:49;17.30;99.90
11908;DHT22;6014;47.690;9.130;2023-10-13T08:11:22;17.40;99.90
11908;DHT22;6014;47.690;9.130;2023-10-13T08:14:00;17.50;99.90
11908;DHT22;6014;47.690;9.130;2023-10-13T08:16:59;17.80;99.90
11908;DHT22;6014;47.690;9.130;2023-10-13T08:19:28;18.10;99.90
11908;DHT22;6014;47.690;9.130;2023-10-13T08:22:08;18.20;99.90
11908;DHT22;6014;47.690;9.130;2023-10-13T08:24:52;18.30;99.90
11908;DHT22;6014;47.690;9.130;2023-10-13T08:27:42;18.30;99.90
11908;DHT22;6014;47.690;9.130;2023-10-13T08:30:27;18.20;99.90
11908;DHT22;6014;47.690;9.130;2023-10-13T08:32:58;18.40;99.90
11908;DHT22;6014;47.690;9.130;2023-10-13T08:35:43;18.60;99.90
11908;DHT22;6014;47.690;9.130;2023-10-13T08:38:32;18.60;99.90
11908;DHT22;6014;47.690;9.130;2023-10-13T08:41:17;18.70;99.90
11908;DHT22;6014;47.690;9.130;2023-10-13T08:44:05;19.10;99.90
11908;DHT22;6014;47.690;9.130;2023-10-13T08:46:37;19.20;99.90
11908;DHT22;6014;47.690;9.130;2023-10-13T08:49:32;19.30;99.90
11908;DHT22;6014;47.690;9.130;2023-10-13T08:52:10;19.40;99.90
11908;DHT22;6014;47.690;9.130;2023-10-13T08:54:56;19.40;99.90
11908;DHT22;6014;47.690;9.130;2023-10-13T08:58:00;19.50;99.90
11908;DHT22;6014;47.690;9.130;2023-10-13T09:00:40;19.80;98.30
11908;DHT22;6014;47.690;9.130;2023-10-13T09:03:39;19.80;98.40
11908;DHT22;6014;47.690;9.130;2023-10-13T09:06:13;20.00;97.30
11908;DHT22;6014;47.690;9.130;2023-10-13T09:08:46;20.40;96.70
11908;DHT22;6014;47.690;9.130;2023-10-13T09:11:31;20.60;93.40
11908;DHT22;6014;47.690;9.130;2023-10-13T09:14:15;20.80;92.80
11908;DHT22;6014;47.690;9.130;2023-10-13T09:17:02;20.90;92.50
11908;DHT22;6014;47.690;9.130;2023-10-13T09:19:47;20.80;92.30
11908;DHT22;6014;47.690;9.130;2023-10-13T09:22:22;21.00;89.00
11908;DHT22;6014;47.690;9.130;2023-10-13T09:25:03;21.10;84.10
11908;DHT22;6014;47.690;9.130;2023-10-13T09:27:32;21.10;81.30
11908;DHT22;6014;47.690;9.130;2023-10-13T09:30:05;21.10;83.00
11908;DHT22;6014;47.690;9.130;2023-10-13T09:32:36;21.00;82.90
11908;DHT22;6014;47.690;9.130;2023-10-13T09:35:17;21.10;84.40
11908;DHT22;6014;47.690;9.130;2023-10-13T09:37:47;21.10;80.70
11908;DHT22;6014;47.690;9.130;2023-10-13T09:40:16;21.30;79.80
11908;DHT22;6014;47.690;9.130;2023-10-13T09:42:55;21.60;77.50
11908;DHT22;6014;47.690;9.130;2023-10-13T09:45:28;21.90;77.20
11908;DHT22;6014;47.690;9.130;2023-10-13T09:48:02;22.10;75.70
11908;DHT22;6014;47.690;9.130;2023-10-13T09:50:37;22.20;72.50
11908;DHT22;6014;47.690;9.130;2023-10-13T09:53:10;22.20;72.10
11908;DHT22;6014;47.690;9.130;2023-10-13T09:55:43;22.20;74.00
11908;DHT22;6014;47.690;9.130;2023-10-13T09:58:13;22.40;73.10
11908;DHT22;6014;47.690;9.130;2023-10-13T10:00:44;22.60;73.10
11908;DHT22;6014;47.690;9.130;2023-10-13T10:03:23;22.80;72.50
11908;DHT22;6014;47.690;9.130;2023-10-13T10:05:58;22.90;71.10
11908;DHT22;6014;47.690;9.130;2023-10-13T10:08:34;22.90;71.40
11908;DHT22;6014;47.690;9.130;2023-10-13T10:11:52;22.90;68.50
11908;DHT22;6014;47.690;9.130;2023-10-13T10:14:35;23.20;68.90
11908;DHT22;6014;47.690;9.130;2023-10-13T10:17:08;23.40;68.70
11908;DHT22;6014;47.690;9.130;2023-10-13T10:19:50;23.40;68.80
11908;DHT22;6014;47.690;9.130;2023-10-13T10:22:28;23.40;68.40
11908;DHT22;6014;47.690;9.130;2023-10-13T10:25:02;23.50;62.50
11908;DHT22;6014;47.690;9.130;2023-10-13T10:27:55;23.50;60.70
11908;DHT22;6014;47.690;9.130;2023-10-13T10:30:24;23.60;60.60
11908;DHT22;6014;47.690;9.130;2023-10-13T10:32:55;23.60;58.70
11908;DHT22;6014;47.690;9.130;2023-10-13T10:35:26;23.60;59.30
11908;DHT22;6014;47.690;9.130;2023-10-13T10:37:57;23.60;62.10
11908;DHT22;6014;47.690;9.130;2023-10-13T10:40:52;23.80;59.60
11908;DHT22;6014;47.690;9.130;2023-10-13T10:43:27;24.00;58.50
11908;DHT22;6014;47.690;9.130;2023-10-13T10:46:09;24.00;58.50
11908;DHT22;6014;47.690;9.130;2023-10-13T10:48:42;23.90;58.10
11908;DHT22;6014;47.690;9.130;2023-10-13T10:51:11;24.00;56.80
11908;DHT22;6014;47.690;9.130;2023-10-13T10:53:48;24.10;54.30
11908;DHT22;6014;47.690;9.130;2023-10-13T10:56:23;24.10;53.20
11908;DHT22;6014;47.690;9.130;2023-10-13T10:58:56;24.20;52.10
11908;DHT22;6014;47.690;9.130;2023-10-13T11:01:26;24.10;52.90
11908;DHT22;6014;47.690;9.130;2023-10-13T11:04:02;24.10;51.40
11908;DHT22;6014;47.690;9.130;2023-10-13T11:06:36;24.20;50.40
11908;DHT22;6014;47.690;9.130;2023-10-13T11:09:10;24.30;48.10
11908;DHT22;6014;47.690;9.130;2023-10-13T11:11:49;24.50;49.10
11908;DHT22;6014;47.690;9.130;2023-10-13T11:14:23;24.80;48.20
11908;DHT22;6014;47.690;9.130;2023-10-13T11:16:52;24.70;46.00
11908;DHT22;6014;47.690;9.130;2023-10-13T11:19:33;24.60;45.00
11908;DHT22;6014;47.690;9.130;2023-10-13T11:22:10;24.60;45.30
11908;DHT22;6014;47.690;9.130;2023-10-13T11:24:42;24.70;44.70
11908;DHT22;6014;47.690;9.130;2023-10-13T11:27:15;24.70;42.70
11908;DHT22;6014;47.690;9.130;2023-10-13T11:29:48;24.80;43.20
11908;DHT22;6014;47.690;9.130;2023-10-13T11:32:19;24.80;43.60
11908;DHT22;6014;47.690;9.130;2023-10-13T11:34:48;25.00;43.80
11908;DHT22;6014;47.690;9.130;2023-10-13T11:37:21;24.90;42.60
11908;DHT22;6014;47.690;9.130;2023-10-13T11:40:06;24.90;43.00
11908;DHT22;6014;47.690;9.130;2023-10-13T11:42:46;24.90;42.90
11908;DHT22;6014;47.690;9.130;2023-10-13T11:45:14;25.10;43.50
11908;DHT22;6014;47.690;9.130;2023-10-13T11:47:55;25.20;42.60
11908;DHT22;6014;47.690;9.130;2023-10-13T11:50:26;25.00;42.70
11908;DHT22;6014;47.690;9.130;2023-10-13T11:53:01;25.20;42.90
11908;DHT22;6014;47.690;9.130;2023-10-13T11:55:34;25.40;44.10
11908;DHT22;6014;47.690;9.130;2023-10-13T11:58:04;25.50;44.00
11908;DHT22;6014;47.690;9.130;2023-10-13T12:00:33;25.50;42.40
11908;DHT22;6014;47.690;9.130;2023-10-13T12:03:15;25.70;42.00
11908;DHT22;6014;47.690;9.130;2023-10-13T12:06:01;25.50;41.20
11908;DHT22;6014;47.690;9.130;2023-10-13T12:08:49;25.30;42.90
11908;DHT22;6014;47.690;9.130;2023-10-13T12:11:19;25.70;42.00
11908;DHT22;6014;47.690;9.130;2023-10-13T12:14:06;26.00;41.30
11908;DHT22;6014;47.690;9.130;2023-10-13T12:16:46;26.10;40.90
11908;DHT22;6014;47.690;9.130;2023-10-13T12:19:19;26.10;39.60
11908;DHT22;6014;47.690;9.130;2023-10-13T12:21:50;25.90;39.50
11908;DHT22;6014;47.690;9.130;2023-10-13T12:24:21;26.20;39.80
11908;DHT22;6014;47.690;9.130;2023-10-13T12:27:07;26.20;39.60
11908;DHT22;6014;47.690;9.130;2023-10-13T12:29:48;26.30;41.00
11908;DHT22;6014;47.690;9.130;2023-10-13T12:32:18;26.30;44.50
11908;DHT22;6014;47.690;9.130;2023-10-13T12:34:50;26.30;42.70
11908;DHT22;6014;47.690;9.130;2023-10-13T12:37:29;26.50;43.60
11908;DHT22;6014;47.690;9.130;2023-10-13T12:40:18;26.90;41.90
11908;DHT22;6014;47.690;9.130;2023-10-13T12:43:04;26.40;42.70
11908;DHT22;6014;47.690;9.130;2023-10-13T12:45:52;26.60;43.00
11908;DHT22;6014;47.690;9.130;2023-10-13T12:48:41;26.70;44.20
11908;DHT22;6014;47.690;9.130;2023-10-13T12:51:30;26.60;45.70
11908;DHT22;6014;47.690;9.130;2023-10-13T12:54:19;26.40;44.60
11908;DHT22;6014;47.690;9.130;2023-10-13T12:56:51;26.80;41.60
11908;DHT22;6014;47.690;9.130;2023-10-13T12:59:23;26.90;42.00
11908;DHT22;6014;47.690;9.130;2023-10-13T13:01:57;26.40;42.50
11908;DHT22;6014;47.690;9.130;2023-10-13T13:04:26;26.50;43.70
11908;DHT22;6014;47.690;9.130;2023-10-13T13:06:59;26.50;44.40
11908;DHT22;6014;47.690;9.130;2023-10-13T13:09:27;26.50;41.40
11908;DHT22;6014;47.690;9.130;2023-10-13T13:11:55;26.60;41.90
11908;DHT22;6014;47.690;9.130;2023-10-13T13:14:24;26.60;43.30
11908;DHT22;6014;47.690;9.130;2023-10-13T13:16:57;26.20;42.90
11908;DHT22;6014;47.690;9.130;2023-10-13T13:19:32;26.10;44.00
11908;DHT22;6014;47.690;9.130;2023-10-13T13:22:03;26.50;43.50
11908;DHT22;6014;47.690;9.130;2023-10-13T13:24:32;26.60;43.40
11908;DHT22;6014;47.690;9.130;2023-10-13T13:27:00;26.60;40.70
11908;DHT22;6014;47.690;9.130;2023-10-13T13:29:30;26.80;39.00
11908;DHT22;6014;47.690;9.130;2023-10-13T13:32:00;26.70;39.20
11908;DHT22;6014;47.690;9.130;2023-10-13T13:34:28;26.60;40.60
11908;DHT22;6014;47.690;9.130;2023-10-13T13:36:57;26.80;40.20
11908;DHT22;6014;47.690;9.130;2023-10-13T13:39:28;26.90;41.00
11908;DHT22;6014;47.690;9.130;2023-10-13T13:41:57;26.80;40.30
11908;DHT22;6014;47.690;9.130;2023-10-13T13:44:25;26.70;40.70
11908;DHT22;6014;47.690;9.130;2023-10-13T13:47:04;26.80;40.70
11908;DHT22;6014;47.690;9.130;2023-10-13T13:49:39;26.80;40.80
11908;DHT22;6014;47.690;9.130;2023-10-13T13:52:07;26.90;40.50
11908;DHT22;6014;47.690;9.130;2023-10-13T13:54:36;26.90;41.10
11908;DHT22;6014;47.690;9.130;2023-10-13T13:57:07;26.90;37.20
11908;DHT22;6014;47.690;9.130;2023-10-13T13:59:35;26.80;34.40
11908;DHT22;6014;47.690;9.130;2023-10-13T14:02:05;26.80;33.70
11908;DHT22;6014;47.690;9.130;2023-10-13T14:04:47;26.90;32.70
11908;DHT22;6014;47.690;9.130;2023-10-13T14:07:18;27.10;30.80
11908;DHT22;6014;47.690;9.130;2023-10-13T14:09:48;27.10;30.00
11908;DHT22;6014;47.690;9.130;2023-10-13T14:12:19;27.30;31.00
11908;DHT22;6014;47.690;9.130;2023-10-13T14:15:09;27.30;29.60
11908;DHT22;6014;47.690;9.130;2023-10-13T14:17:48;27.20;29.20
11908;DHT22;6014;47.690;9.130;2023-10-13T14:20:16;27.10;27.90
11908;DHT22;6014;47.690;9.130;2023-10-13T14:22:46;27.20;28.60
11908;DHT22;6014;47.690;9.130;2023-10-13T14:25:15;27.20;28.40
11908;DHT22;6014;47.690;9.130;2023-10-13T14:27:45;27.10;27.30
11908;DHT22;6014;47.690;9.130;2023-10-13T14:30:13;27.00;27.30
11908;DHT22;6014;47.690;9.130;2023-10-13T14:32:52;27.00;27.40
11908;DHT22;6014;47.690;9.130;2023-10-13T14:35:25;26.90;28.40
11908;DHT22;6014;47.690;9.130;2023-10-13T14:37:53;26.80;28.50
11908;DHT22;6014;47.690;9.130;2023-10-13T14:40:21;26.70;29.60
11908;DHT22;6014;47.690;9.130;2023-10-13T14:42:49;26.70;29.80
11908;DHT22;6014;47.690;9.130;2023-10-13T14:45:17;26.70;27.80
11908;DHT22;6014;47.690;9.130;2023-10-13T14:47:45;26.60;27.30
11908;DHT22;6014;47.690;9.130;2023-10-13T14:50:15;26.60;27.10
11908;DHT22;6014;47.690;9.130;2023-10-13T14:52:47;26.40;27.60
11908;DHT22;6014;47.690;9.130;2023-10-13T14:55:16;26.30;28.00
11908;DHT22;6014;47.690;9.130;2023-10-13T14:57:49;26.30;28.70
11908;DHT22;6014;47.690;9.130;2023-10-13T15:00:18;26.30;29.40
11908;DHT22;6014;47.690;9.130;2023-10-13T15:02:52;26.20;27.80
11908;DHT22;6014;47.690;9.130;2023-10-13T15:05:22;26.20;28.40
11908;DHT22;6014;47.690;9.130;2023-10-13T15:07:50;26.20;28.40
11908;DHT22;6014;47.690;9.130;2023-10-13T15:10:21;26.20;28.20
11908;DHT22;6014;47.690;9.130;2023-10-13T15:12:52;26.40;28.20
11908;DHT22;6014;47.690;9.130;2023-10-13T15:15:21;26.50;27.70
11908;DHT22;6014;47.690;9.130;2023-10-13T15:17:51;27.10;28.40
11908;DHT22;6014;47.690;9.130;2023-10-13T15:20:21;27.50;27.20
11908;DHT22;6014;47.690;9.130;2023-10-13T15:22:50;27.80;27.30
11908;DHT22;6014;47.690;9.130;2023-10-13T15:25:26;28.00;26.20
11908;DHT22;6014;47.690;9.130;2023-10-13T15:28:07;28.10;25.50
11908;DHT22;6014;47.690;9.130;2023-10-13T15:30:37;27.80;25.70
11908;DHT22;6014;47.690;9.130;2023-10-13T15:33:15;27.60;25.10
11908;DHT22;6014;47.690;9.130;2023-10-13T15:35:47;27.00;27.10
11908;DHT22;6014;47.690;9.130;2023-10-13T15:38:15;26.30;26.80
11908;DHT22;6014;47.690;9.130;2023-10-13T15:40:44;25.90;27.70
11908;DHT22;6014;47.690;9.130;2023-10-13T15:43:18;25.60;26.90
11908;DHT22;6014;47.690;9.130;2023-10-13T15:45:46;25.40;27.60
11908;DHT22;6014;47.690;9.130;2023-10-13T15:48:14;25.10;28.50
11908;DHT22;6014;47.690;9.130;2023-10-13T15:50:48;25.00;28.60
11908;DHT22;6014;47.690;9.130;2023-10-13T15:53:17;24.80;29.00
11908;DHT22;6014;47.690;9.130;2023-10-13T15:55:45;24.60;30.10
11908;DHT22;6014;47.690;9.130;2023-10-13T15:58:14;24.40;30.70
11908;DHT22;6014;47.690;9.130;2023-10-13T16:00:43;24.20;31.40
11908;DHT22;6014;47.690;9.130;2023-10-13T16:03:12;24.10;30.50
11908;DHT22;6014;47.690;9.130;2023-10-13T16:05:40;23.90;31.10
11908;DHT22;6014;47.690;9.130;2023-10-13T16:08:11;23.80;31.70
11908;DHT22;6014;47.690;9.130;2023-10-13T16:10:42;23.60;32.20
11908;DHT22;6014;47.690;9.130;2023-10-13T16:13:10;23.40;31.90
11908;DHT22;6014;47.690;9.130;2023-10-13T16:15:44;23.20;31.20
11908;DHT22;6014;47.690;9.130;2023-10-13T16:18:14;23.00;31.10
11908;DHT22;6014;47.690;9.130;2023-10-13T16:20:49;22.80;31.90
11908;DHT22;6014;47.690;9.130;2023-10-13T16:23:22;22.60;31.80
11908;DHT22;6014;47.690;9.130;2023-10-13T16:25:51;22.40;31.90
11908;DHT22;6014;47.690;9.130;2023-10-13T16:28:19;22.30;32.00
11908;DHT22;6014;47.690;9.130;2023-10-13T16:30:49;22.20;31.80
11908;DHT22;6014;47.690;9.130;2023-10-13T16:33:20;22.10;31.60
11908;DHT22;6014;47.690;9.130;2023-10-13T16:35:48;22.10;31.60
11908;DHT22;6014;47.690;9.130;2023-10-13T16:38:21;22.00;32.10
11908;DHT22;6014;47.690;9.130;2023-10-13T16:40:53;21.90;31.90